createdAt,value
2019-02-27T00:00:30.187Z,5.10
2019-02-27T00:02:58.883Z,5.10
2019-02-27T00:05:27.623Z,5.10
2019-02-27T00:07:56.247Z,5.10
2019-02-27T00:10:24.840Z,5.10
2019-02-27T00:12:53.535Z,5.10
2019-02-27T00:15:22.177Z,5.10
2019-02-27T00:17:51.370Z,5.10
2019-02-27T00:20:20.620Z,5.10
2019-02-27T00:22:50.621Z,5.10
2019-02-27T00:25:19.484Z,5.20
2019-02-27T00:27:49.274Z,5.20
2019-02-27T00:30:18.410Z,5.20
2019-02-27T00:32:50.935Z,5.20
2019-02-27T00:35:17.352Z,5.10
2019-02-27T00:37:45.895Z,5.10
2019-02-27T00:40:14.585Z,5.10
2019-02-27T00:42:43.107Z,5.00
2019-02-27T00:45:12.294Z,4.90
2019-02-27T00:47:40.859Z,4.90
2019-02-27T00:50:10.075Z,4.80
2019-02-27T00:52:38.646Z,4.80
2019-02-27T00:55:08.731Z,4.70
2019-02-27T00:57:37.380Z,4.70
2019-02-27T01:00:17.220Z,4.60
2019-02-27T01:02:45.858Z,4.50
2019-02-27T01:05:14.547Z,4.40
2019-02-27T01:07:43.188Z,4.30
2019-02-27T01:10:12.875Z,4.20
2019-02-27T01:12:41.810Z,4.20
2019-02-27T01:15:13.499Z,4.20
2019-02-27T01:17:42.552Z,4.10
2019-02-27T01:20:15.273Z,4.10
2019-02-27T01:22:43.978Z,4.10
2019-02-27T01:25:13.170Z,4.10
2019-02-27T01:27:41.734Z,4.00
2019-02-27T01:30:13.228Z,4.00
2019-02-27T01:32:41.869Z,4.00
2019-02-27T01:35:11.456Z,3.90
2019-02-27T01:37:40.037Z,3.90
2019-02-27T01:40:11.436Z,3.90
2019-02-27T01:42:40.021Z,3.80
2019-02-27T01:45:11.546Z,3.80
2019-02-27T01:47:40.187Z,3.90
2019-02-27T01:50:26.236Z,4.10
2019-02-27T01:52:55.109Z,4.10
2019-02-27T01:55:23.803Z,4.00
2019-02-27T01:57:52.470Z,3.90
2019-02-27T02:00:23.268Z,3.80
2019-02-27T02:02:51.397Z,3.70
2019-02-27T02:05:20.083Z,3.60
2019-02-27T02:07:49.022Z,3.60
2019-02-27T02:10:17.811Z,3.60
2019-02-27T02:12:52.064Z,3.40
2019-02-27T02:15:44.323Z,3.30
2019-02-27T02:18:27.924Z,3.20
2019-02-27T02:21:10.835Z,3.30
2019-02-27T02:24:11.527Z,3.20
2019-02-27T02:26:51.860Z,3.20
2019-02-27T02:29:46.140Z,3.10
2019-02-27T02:32:39.032Z,2.90
2019-02-27T02:35:31.542Z,2.90
2019-02-27T02:38:12.307Z,2.80
2019-02-27T02:40:53.988Z,2.70
2019-02-27T02:43:40.218Z,2.70
2019-02-27T02:46:13.933Z,2.60
2019-02-27T02:48:51.056Z,2.60
2019-02-27T02:51:34.499Z,2.50
2019-02-27T02:54:20.722Z,2.50
2019-02-27T02:57:00.540Z,2.40
2019-02-27T02:59:49.049Z,2.40
2019-02-27T03:02:35.716Z,2.30
2019-02-27T03:05:23.728Z,2.40
2019-02-27T03:08:19.888Z,2.40
2019-02-27T03:10:57.426Z,2.40
2019-02-27T03:14:02.230Z,2.30
2019-02-27T03:16:41.536Z,2.20
2019-02-27T03:19:15.861Z,2.20
2019-02-27T03:21:47.518Z,2.10
2019-02-27T03:24:34.158Z,2.10
2019-02-27T03:27:30.617Z,2.00
2019-02-27T03:30:19.230Z,2.00
2019-02-27T03:32:50.871Z,1.90
2019-02-27T03:35:45.196Z,1.90
2019-02-27T03:38:36.311Z,1.80
2019-02-27T03:41:22.963Z,1.70
2019-02-27T03:44:08.213Z,1.70
2019-02-27T03:46:45.517Z,1.60
2019-02-27T03:49:40.724Z,1.60
2019-02-27T03:52:37.377Z,1.50
2019-02-27T03:55:42.567Z,1.50
2019-02-27T03:58:17.039Z,1.40
2019-02-27T04:00:57.787Z,1.30
2019-02-27T04:03:54.235Z,1.30
2019-02-27T04:06:44.960Z,1.30
2019-02-27T04:09:18.894Z,1.30
2019-02-27T04:11:43.762Z,1.20
2019-02-27T04:14:27.439Z,1.20
2019-02-27T04:16:56.103Z,1.10
2019-02-27T04:19:24.707Z,1.10
2019-02-27T04:21:53.283Z,1.10
2019-02-27T04:24:22.587Z,1.20
2019-02-27T04:26:51.824Z,1.20
2019-02-27T04:29:20.374Z,1.20
2019-02-27T04:31:48.967Z,1.30
2019-02-27T04:34:17.693Z,1.20
2019-02-27T04:36:47.292Z,1.10
2019-02-27T04:39:16.324Z,1.10
2019-02-27T04:41:44.910Z,1.10
2019-02-27T04:44:13.529Z,1.00
2019-02-27T04:46:42.090Z,0.90
2019-02-27T04:49:10.643Z,0.90
2019-02-27T04:51:39.246Z,0.80
2019-02-27T04:54:07.832Z,0.80
2019-02-27T04:56:36.407Z,0.70
2019-02-27T04:59:04.971Z,0.80
2019-02-27T05:01:36.444Z,0.70
2019-02-27T05:04:03.769Z,0.70
2019-02-27T05:06:32.418Z,0.70
2019-02-27T05:09:00.986Z,0.70
2019-02-27T05:11:29.554Z,0.70
2019-02-27T05:13:58.138Z,0.70
2019-02-27T05:16:26.704Z,0.60
2019-02-27T05:18:55.302Z,0.60
2019-02-27T05:21:23.879Z,0.60
2019-02-27T05:23:52.454Z,0.50
2019-02-27T05:26:21.001Z,0.60
2019-02-27T05:28:49.576Z,0.50
2019-02-27T05:31:19.055Z,0.50
2019-02-27T05:33:47.836Z,0.50
2019-02-27T05:36:16.410Z,0.40
2019-02-27T05:38:44.978Z,0.40
2019-02-27T05:41:13.529Z,0.40
2019-02-27T05:43:42.104Z,0.40
2019-02-27T05:46:10.752Z,0.50
2019-02-27T05:48:39.332Z,0.50
2019-02-27T05:51:08.335Z,0.50
2019-02-27T05:53:38.148Z,0.40
2019-02-27T05:56:06.709Z,0.40
2019-02-27T05:58:35.299Z,0.30
2019-02-27T06:01:04.957Z,0.30
2019-02-27T06:03:34.152Z,0.30
2019-02-27T06:06:02.707Z,0.20
2019-02-27T06:08:35.166Z,0.20
2019-02-27T06:11:01.488Z,0.30
2019-02-27T06:13:30.072Z,0.30
2019-02-27T06:16:02.910Z,0.30
2019-02-27T06:18:28.925Z,0.30
2019-02-27T06:20:57.471Z,0.40
2019-02-27T06:23:26.150Z,0.50
2019-02-27T06:25:59.086Z,0.50
2019-02-27T06:28:24.943Z,0.50
2019-02-27T06:30:53.569Z,0.60
2019-02-27T06:33:22.151Z,0.60
2019-02-27T06:35:50.701Z,0.80
2019-02-27T06:38:19.311Z,0.90
2019-02-27T06:40:47.927Z,1.10
2019-02-27T06:43:16.506Z,1.40
2019-02-27T06:45:46.485Z,1.80
2019-02-27T06:48:15.237Z,2.50
2019-02-27T06:50:43.814Z,3.30
2019-02-27T06:53:15.611Z,3.90
2019-02-27T06:55:42.623Z,4.30
2019-02-27T06:58:14.607Z,4.50
2019-02-27T07:00:41.403Z,4.90
2019-02-27T07:03:09.995Z,5.50
2019-02-27T07:05:38.570Z,5.70
2019-02-27T07:08:07.110Z,5.90
2019-02-27T07:10:35.712Z,5.80
2019-02-27T07:13:04.335Z,6.10
2019-02-27T07:15:32.915Z,6.30
2019-02-27T07:18:03.401Z,6.70
2019-02-27T07:20:31.849Z,7.20
2019-02-27T07:23:00.404Z,7.20
2019-02-27T07:25:28.986Z,7.60
2019-02-27T07:27:57.538Z,8.30
2019-02-27T07:30:26.127Z,8.30
2019-02-27T07:32:54.685Z,8.90
2019-02-27T07:35:25.409Z,9.60
2019-02-27T07:37:53.460Z,10.50
2019-02-27T07:40:22.048Z,10.90
2019-02-27T07:42:50.602Z,10.70
2019-02-27T07:45:23.468Z,10.80
2019-02-27T07:47:52.078Z,11.00
2019-02-27T07:50:21.608Z,11.40
2019-02-27T07:52:51.921Z,11.70
2019-02-27T07:55:23.062Z,11.20
2019-02-27T07:57:50.842Z,10.80
2019-02-27T08:00:23.546Z,11.50
2019-02-27T08:02:52.126Z,12.00
2019-02-27T08:05:20.806Z,12.60
2019-02-27T08:07:49.962Z,12.90
2019-02-27T08:10:21.207Z,12.50
2019-02-27T08:12:49.831Z,13.30
2019-02-27T08:15:21.487Z,13.40
2019-02-27T08:17:50.135Z,14.00
2019-02-27T08:20:21.005Z,12.30
2019-02-27T08:22:49.770Z,13.50
2019-02-27T08:25:18.953Z,14.00
2019-02-27T08:27:47.579Z,13.90
2019-02-27T08:30:23.673Z,14.80
2019-02-27T08:32:52.254Z,14.80
2019-02-27T08:35:20.901Z,15.20
2019-02-27T08:37:49.479Z,15.70
2019-02-27T08:40:18.071Z,16.10
2019-02-27T08:42:46.647Z,14.70
2019-02-27T08:45:20.508Z,14.80
2019-02-27T08:47:49.485Z,15.10
2019-02-27T08:50:19.433Z,15.80
2019-02-27T08:52:51.494Z,15.40
2019-02-27T08:55:22.293Z,15.90
2019-02-27T08:57:50.081Z,15.70
2019-02-27T09:00:28.764Z,16.30
2019-02-27T09:03:02.295Z,16.60
2019-02-27T09:05:27.567Z,16.20
2019-02-27T09:07:56.178Z,17.00
2019-02-27T09:10:26.809Z,16.90
2019-02-27T09:13:04.935Z,18.10
2019-02-27T09:15:26.242Z,16.30
2019-02-27T09:17:54.808Z,17.20
2019-02-27T09:20:23.388Z,17.20
2019-02-27T09:22:51.940Z,17.50
2019-02-27T09:25:23.875Z,17.20
2019-02-27T09:27:50.729Z,17.80
2019-02-27T09:30:21.442Z,17.70
2019-02-27T09:32:50.059Z,18.20
2019-02-27T09:35:18.655Z,18.30
2019-02-27T09:37:48.461Z,17.10
2019-02-27T09:40:19.775Z,16.30
2019-02-27T09:42:50.146Z,16.40
2019-02-27T09:45:35.433Z,16.50
2019-02-27T09:48:04.732Z,17.40
2019-02-27T09:50:48.136Z,17.20
2019-02-27T09:53:15.492Z,17.90
2019-02-27T09:55:44.146Z,18.60
2019-02-27T09:58:12.871Z,17.90
2019-02-27T10:00:44.158Z,18.90
2019-02-27T10:03:12.856Z,19.60
2019-02-27T10:05:41.438Z,18.80
2019-02-27T10:08:11.040Z,19.20
2019-02-27T10:10:39.766Z,18.60
2019-02-27T10:13:08.386Z,18.90
2019-02-27T10:15:36.957Z,19.30
2019-02-27T10:18:05.693Z,19.70
2019-02-27T10:20:36.823Z,20.10
2019-02-27T10:23:04.700Z,19.90
2019-02-27T10:25:33.248Z,18.60
2019-02-27T10:28:04.494Z,19.00
2019-02-27T10:30:32.322Z,19.20
2019-02-27T10:33:00.968Z,18.70
2019-02-27T10:35:30.147Z,19.20
2019-02-27T10:37:59.014Z,18.80
2019-02-27T10:40:27.743Z,19.00
2019-02-27T10:42:56.311Z,19.20
2019-02-27T10:45:24.956Z,19.60
2019-02-27T10:47:53.536Z,20.00
2019-02-27T10:50:22.103Z,20.30
2019-02-27T10:52:50.684Z,21.20
2019-02-27T10:55:20.497Z,21.80
2019-02-27T10:57:49.219Z,20.90
2019-02-27T11:00:26.927Z,21.60
2019-02-27T11:02:55.495Z,20.80
2019-02-27T11:05:25.479Z,20.00
2019-02-27T11:07:54.055Z,20.50
2019-02-27T11:10:22.927Z,20.80
2019-02-27T11:12:51.564Z,20.10
2019-02-27T11:15:21.459Z,19.30
2019-02-27T11:17:50.091Z,20.40
2019-02-27T11:20:20.841Z,21.40
2019-02-27T11:22:49.004Z,20.70
2019-02-27T11:25:28.745Z,20.60
2019-02-27T11:27:57.436Z,20.20
2019-02-27T11:30:40.547Z,20.10
2019-02-27T11:33:09.219Z,20.80
2019-02-27T11:35:37.830Z,20.00
2019-02-27T11:38:06.627Z,20.30
2019-02-27T11:40:35.170Z,20.90
2019-02-27T11:43:06.346Z,20.60
2019-02-27T11:45:34.007Z,20.40
2019-02-27T11:48:02.602Z,20.00
2019-02-27T11:50:31.303Z,20.60
2019-02-27T11:53:02.762Z,20.90
2019-02-27T11:55:30.304Z,22.10
2019-02-27T11:57:58.900Z,23.10
2019-02-27T12:00:29.148Z,24.20
2019-02-27T12:02:58.271Z,24.60
2019-02-27T12:05:33.812Z,25.60
2019-02-27T12:07:59.136Z,25.30
2019-02-27T12:10:31.779Z,25.50
2019-02-27T12:13:01.393Z,24.90
2019-02-27T12:15:30.382Z,24.60
2019-02-27T12:18:00.570Z,24.80
2019-02-27T12:20:29.434Z,24.70
2019-02-27T12:22:58.086Z,23.70
2019-02-27T12:25:29.687Z,23.90
2019-02-27T12:27:57.299Z,23.50
2019-02-27T12:30:28.080Z,23.30
2019-02-27T12:32:57.091Z,24.20
2019-02-27T12:35:28.733Z,23.10
2019-02-27T12:37:57.418Z,22.90
2019-02-27T12:40:26.152Z,23.30
2019-02-27T12:42:54.946Z,23.20
2019-02-27T12:45:26.582Z,23.60
2019-02-27T12:47:55.316Z,22.80
2019-02-27T12:50:27.036Z,23.30
2019-02-27T12:52:56.258Z,23.10
2019-02-27T12:55:25.048Z,22.00
2019-02-27T12:57:53.668Z,20.80
2019-02-27T13:00:29.647Z,20.30
2019-02-27T13:02:59.228Z,19.80
2019-02-27T13:05:28.709Z,20.50
2019-02-27T13:07:57.496Z,20.60
2019-02-27T13:10:33.188Z,21.50
2019-02-27T13:12:58.163Z,20.60
2019-02-27T13:15:28.771Z,20.30
2019-02-27T13:17:58.022Z,19.60
2019-02-27T13:20:30.855Z,19.60
2019-02-27T13:23:03.900Z,19.60
2019-02-27T13:25:30.467Z,19.30
2019-02-27T13:27:59.232Z,19.10
2019-02-27T13:30:28.547Z,19.10
2019-02-27T13:33:00.621Z,19.30
2019-02-27T13:35:28.532Z,19.40
2019-02-27T13:37:57.425Z,19.40
2019-02-27T13:40:27.439Z,19.40
2019-02-27T13:42:56.139Z,19.10
2019-02-27T13:45:29.823Z,18.70
2019-02-27T13:47:59.085Z,18.60
2019-02-27T13:50:27.994Z,18.90
2019-02-27T13:52:56.550Z,18.10
2019-02-27T13:55:25.245Z,18.20
2019-02-27T13:57:58.931Z,18.00
2019-02-27T14:00:39.407Z,18.60
2019-02-27T14:03:12.395Z,18.30
2019-02-27T14:05:38.259Z,18.50
2019-02-27T14:08:06.890Z,19.00
2019-02-27T14:10:35.460Z,19.30
2019-02-27T14:13:08.810Z,18.50
2019-02-27T14:15:34.707Z,18.30
2019-02-27T14:18:03.270Z,18.30
2019-02-27T14:20:31.873Z,18.40
2019-02-27T14:23:00.454Z,18.30
2019-02-27T14:25:33.476Z,18.30
2019-02-27T14:28:02.385Z,18.10
2019-02-27T14:30:42.799Z,18.10
2019-02-27T14:33:11.498Z,18.20
2019-02-27T14:35:40.043Z,17.50
2019-02-27T14:38:08.685Z,18.10
2019-02-27T14:40:40.966Z,17.70
2019-02-27T14:43:07.679Z,17.90
2019-02-27T14:45:39.564Z,18.00
2019-02-27T14:48:06.677Z,18.50
2019-02-27T14:50:35.509Z,18.20
2019-02-27T14:53:04.134Z,18.00
2019-02-27T14:55:35.953Z,18.10
2019-02-27T14:58:03.078Z,18.10
2019-02-27T15:00:33.403Z,18.10
2019-02-27T15:03:01.951Z,18.10
2019-02-27T15:05:31.007Z,18.30
2019-02-27T15:07:59.854Z,17.90
2019-02-27T15:10:28.398Z,18.00
2019-02-27T15:12:56.962Z,18.20
2019-02-27T15:15:27.380Z,18.30
2019-02-27T15:17:56.383Z,18.30
2019-02-27T15:20:27.080Z,17.90
2019-02-27T15:22:55.790Z,17.80
2019-02-27T15:25:24.555Z,17.70
2019-02-27T15:27:58.304Z,17.90
2019-02-27T15:30:30.908Z,18.20
2019-02-27T15:33:03.820Z,18.60
2019-02-27T15:35:29.807Z,18.00
2019-02-27T15:37:58.605Z,17.80
2019-02-27T15:40:30.074Z,18.40
2019-02-27T15:42:59.181Z,18.10
2019-02-27T15:45:28.795Z,17.80
2019-02-27T15:47:57.529Z,17.90
2019-02-27T15:50:31.383Z,17.80
2019-02-27T15:53:00.036Z,17.90
2019-02-27T15:55:32.973Z,18.00
2019-02-27T15:57:59.000Z,17.50
2019-02-27T16:00:28.593Z,17.70
2019-02-27T16:02:57.346Z,17.90
2019-02-27T16:05:30.079Z,17.90
2019-02-27T16:07:56.291Z,17.70
2019-02-27T16:10:26.198Z,17.60
2019-02-27T16:13:00.040Z,17.40
2019-02-27T16:15:25.296Z,17.50
2019-02-27T16:17:53.939Z,17.40
2019-02-27T16:20:41.820Z,17.30
2019-02-27T16:23:10.577Z,17.20
2019-02-27T16:25:39.130Z,17.00
2019-02-27T16:28:11.359Z,17.10
2019-02-27T16:30:37.979Z,17.00
2019-02-27T16:33:07.127Z,16.80
2019-02-27T16:35:41.387Z,16.90
2019-02-27T16:38:06.195Z,16.80
2019-02-27T16:40:34.817Z,16.70
2019-02-27T16:43:03.409Z,16.60
2019-02-27T16:45:39.359Z,16.30
2019-02-27T16:48:08.020Z,16.20
2019-02-27T16:50:36.757Z,16.00
2019-02-27T16:53:05.286Z,15.90
2019-02-27T16:55:37.002Z,15.70
2019-02-27T16:58:04.089Z,15.30
2019-02-27T17:00:37.591Z,15.10
2019-02-27T17:03:06.270Z,15.00
2019-02-27T17:05:35.652Z,14.80
2019-02-27T17:08:04.373Z,14.60
2019-02-27T17:10:39.943Z,14.40
2019-02-27T17:13:08.596Z,14.10
2019-02-27T17:15:37.152Z,13.90
2019-02-27T17:18:05.877Z,13.80
2019-02-27T17:20:34.551Z,13.60
2019-02-27T17:23:07.422Z,13.40
2019-02-27T17:25:33.518Z,13.30
2019-02-27T17:28:02.238Z,13.20
2019-02-27T17:30:37.739Z,13.00
2019-02-27T17:33:05.246Z,12.80
2019-02-27T17:35:34.122Z,12.60
2019-02-27T17:38:03.195Z,12.40
2019-02-27T17:40:36.281Z,12.30
2019-02-27T17:43:02.148Z,12.20
2019-02-27T17:45:30.725Z,12.00
2019-02-27T17:47:59.283Z,11.90
2019-02-27T17:50:31.368Z,11.70
2019-02-27T17:52:58.287Z,11.60
2019-02-27T17:55:26.907Z,11.40
2019-02-27T17:57:58.391Z,11.30
2019-02-27T18:00:28.591Z,11.10
2019-02-27T18:02:57.434Z,10.90
2019-02-27T18:05:26.191Z,10.80
2019-02-27T18:07:54.938Z,10.70
2019-02-27T18:10:23.533Z,10.60
2019-02-27T18:12:52.212Z,10.50
2019-02-27T18:15:22.020Z,10.40
2019-02-27T18:17:50.822Z,10.30
2019-02-27T18:20:24.149Z,10.00
2019-02-27T18:22:50.456Z,9.90
2019-02-27T18:25:19.771Z,9.80
2019-02-27T18:27:48.402Z,9.60
2019-02-27T18:30:21.524Z,9.50
2019-02-27T18:32:50.325Z,9.40
2019-02-27T18:35:19.635Z,9.30
2019-02-27T18:37:53.213Z,9.20
2019-02-27T18:40:20.093Z,9.20
2019-02-27T18:42:48.720Z,9.10
2019-02-27T18:45:19.341Z,8.90
2019-02-27T18:47:47.885Z,8.90
2019-02-27T18:50:17.016Z,8.80
2019-02-27T18:52:45.634Z,8.70
2019-02-27T18:55:16.134Z,8.60
2019-02-27T18:57:47.235Z,8.50
2019-02-27T19:00:23.076Z,8.40
2019-02-27T19:03:09.197Z,8.30
2019-02-27T19:05:41.743Z,8.20
2019-02-27T19:08:08.402Z,8.10
2019-02-27T19:10:41.331Z,8.00
2019-02-27T19:13:07.214Z,7.90
2019-02-27T19:15:35.859Z,7.80
2019-02-27T19:18:06.623Z,7.70
2019-02-27T19:20:37.927Z,7.70
2019-02-27T19:23:06.551Z,7.60
2019-02-27T19:25:35.548Z,7.50
2019-02-27T19:28:04.446Z,7.50
2019-02-27T19:30:34.700Z,7.50
2019-02-27T19:33:03.509Z,7.40
2019-02-27T19:35:32.215Z,7.30
2019-02-27T19:38:00.895Z,7.30
2019-02-27T19:40:30.559Z,7.20
2019-02-27T19:43:04.210Z,7.10
2019-02-27T19:45:35.875Z,7.10
2019-02-27T19:48:03.152Z,7.00
2019-02-27T19:50:31.803Z,6.90
2019-02-27T19:53:05.209Z,6.80
2019-02-27T19:55:30.919Z,6.70
2019-02-27T19:57:59.556Z,6.60
2019-02-27T20:00:33.788Z,6.50
2019-02-27T20:03:01.586Z,6.50
2019-02-27T20:05:30.502Z,6.50
2019-02-27T20:07:59.131Z,6.40
2019-02-27T20:10:30.943Z,6.30
2019-02-27T20:12:58.067Z,6.30
2019-02-27T20:15:27.581Z,6.20
2019-02-27T20:17:56.324Z,6.20
2019-02-27T20:20:26.010Z,6.10
2019-02-27T20:22:55.517Z,6.00
2019-02-27T20:25:29.118Z,6.00
2019-02-27T20:27:58.732Z,5.90
2019-02-27T20:30:27.626Z,5.80
2019-02-27T20:32:56.305Z,5.80
2019-02-27T20:35:25.076Z,5.80
2019-02-27T20:37:53.644Z,5.70
2019-02-27T20:40:22.431Z,5.70
2019-02-27T20:42:54.941Z,5.60
2019-02-27T20:45:22.551Z,5.50
2019-02-27T20:47:57.647Z,5.50
2019-02-27T20:50:34.762Z,5.40
2019-02-27T20:52:58.678Z,5.30
2019-02-27T20:55:27.231Z,5.20
2019-02-27T20:57:55.924Z,5.20
2019-02-27T21:00:25.019Z,5.10
2019-02-27T21:02:54.161Z,5.10
2019-02-27T21:05:23.695Z,5.00
2019-02-27T21:07:52.277Z,5.00
2019-02-27T21:10:23.858Z,5.00
2019-02-27T21:12:54.250Z,4.90
2019-02-27T21:15:24.852Z,4.90
2019-02-27T21:17:57.748Z,4.80
2019-02-27T21:20:23.699Z,4.80
2019-02-27T21:22:52.509Z,4.70
2019-02-27T21:25:21.098Z,4.70
2019-02-27T21:27:49.690Z,4.60
2019-02-27T21:30:45.366Z,4.60
2019-02-27T21:33:13.926Z,4.50
2019-02-27T21:35:44.608Z,4.50
2019-02-27T21:38:12.844Z,4.40
2019-02-27T21:40:41.463Z,4.30
2019-02-27T21:43:10.122Z,4.30
2019-02-27T21:45:38.744Z,4.20
2019-02-27T21:48:07.471Z,4.20
2019-02-27T21:50:39.645Z,4.10
2019-02-27T21:53:06.436Z,4.00
2019-02-27T21:55:34.990Z,4.00
2019-02-27T21:58:03.713Z,4.00
2019-02-27T22:00:32.348Z,4.00
2019-02-27T22:03:03.625Z,3.90
2019-02-27T22:05:31.342Z,3.90
2019-02-27T22:07:59.859Z,3.90
2019-02-27T22:10:28.618Z,3.90
2019-02-27T22:12:57.239Z,3.80
2019-02-27T22:15:27.570Z,3.80
2019-02-27T22:17:56.261Z,3.70
2019-02-27T22:20:26.760Z,3.70
2019-02-27T22:22:55.583Z,3.70
2019-02-27T22:25:24.253Z,3.70
2019-02-27T22:27:52.939Z,3.70
2019-02-27T22:30:22.469Z,3.60
2019-02-27T22:32:51.190Z,3.60
2019-02-27T22:35:19.837Z,3.60
2019-02-27T22:37:50.976Z,3.50
2019-02-27T22:40:23.416Z,3.40
2019-02-27T22:42:51.962Z,3.40
2019-02-27T22:45:20.993Z,3.40
2019-02-27T22:47:50.477Z,3.40
2019-02-27T22:50:20.116Z,3.30
2019-02-27T22:52:54.072Z,3.30
2019-02-27T22:55:19.250Z,3.20
2019-02-27T22:57:47.867Z,3.20
2019-02-27T23:00:56.106Z,3.20
2019-02-27T23:03:27.991Z,3.10
2019-02-27T23:05:56.724Z,3.00
2019-02-27T23:08:25.337Z,3.00
2019-02-27T23:10:53.924Z,3.00
2019-02-27T23:13:22.549Z,2.90
2019-02-27T23:15:51.765Z,2.90
2019-02-27T23:18:20.450Z,2.80
2019-02-27T23:20:49.059Z,2.80
2019-02-27T23:23:17.834Z,2.80
2019-02-27T23:25:47.380Z,2.70
2019-02-27T23:28:16.030Z,2.70
2019-02-27T23:30:47.032Z,2.60
2019-02-27T23:33:14.959Z,2.60
2019-02-27T23:35:43.648Z,2.60
2019-02-27T23:38:12.199Z,2.50
2019-02-27T23:40:40.771Z,2.50
2019-02-27T23:43:09.416Z,2.50
2019-02-27T23:45:38.002Z,2.40
2019-02-27T23:48:06.738Z,2.40
2019-02-27T23:50:35.253Z,2.40
2019-02-27T23:53:03.871Z,2.30
2019-02-27T23:55:32.452Z,2.30
2019-02-27T23:58:01.129Z,2.20
